Time;durP1;ratioP1;P1;durP2;ratioP2;P2;SDS_P1;SDS_P2;PMS_P1;PMS_P2;Temp;Humidity;BMP_temperature;BMP_pressure;BME280_temperature;BME280_humidity;BME280_pressure;Samples;Min_cycle;Max_cycle;Signal;HPM_P1;HPM_P2
2022/01/31 00:01:00;;;;;;;;;;;4.90;99.90;;;;;;8361474;28;19959;-72
2022/01/31 00:05:03;;;;;;;;;;;5.00;99.90;;;;;;8382720;28;19988;-73
2022/01/31 00:09:04;;;;;;;;;;;5.00;99.90;;;;;;8376561;28;19929;-73
2022/01/31 00:13:16;;;;;;;;;;;5.10;99.90;;;;;;8363305;28;19982;-73
2022/01/31 00:17:18;;;;;;;;;;;5.10;99.90;;;;;;8376024;28;20020;-72
2022/01/31 00:21:20;;;;;;;;;;;5.10;99.90;;;;;;8374327;28;19924;-72
2022/01/31 00:25:21;;;;;;;;;;;5.20;99.90;;;;;;8371855;28;20000;-72
2022/01/31 00:29:23;;;;;;;;;;;5.20;99.90;;;;;;8359233;28;19963;-73
2022/01/31 00:33:24;;;;;;;;;;;5.20;99.90;;;;;;8363081;28;20007;-72
2022/01/31 00:37:26;;;;;;;;;;;5.10;99.90;;;;;;8381684;28;19932;-72
2022/01/31 00:41:28;;;;;;;;;;;5.00;99.90;;;;;;8381806;28;20143;-72
2022/01/31 00:45:31;;;;;;;;;;;4.90;99.90;;;;;;8380811;28;20384;-72
2022/01/31 00:53:35;;;;;;;;;;;4.90;99.90;;;;;;8381681;28;20007;-72
2022/01/31 00:57:37;;;;;;;;;;;4.80;99.90;;;;;;8380497;28;19978;-72
2022/01/31 01:01:38;;;;;;;;;;;4.80;99.90;;;;;;8355646;28;20403;-72
2022/01/31 01:05:40;;;;;;;;;;;4.80;99.90;;;;;;8377774;28;19932;-72
2022/01/31 01:09:42;;;;;;;;;;;4.70;99.90;;;;;;8382664;28;20332;-72
2022/01/31 01:13:43;;;;;;;;;;;4.70;99.90;;;;;;8380106;28;19991;-72
2022/01/31 01:17:46;;;;;;;;;;;4.70;99.90;;;;;;8375025;28;20375;-72
2022/01/31 01:21:47;;;;;;;;;;;4.70;99.90;;;;;;8362808;28;19935;-71
2022/01/31 01:25:50;;;;;;;;;;;4.70;99.90;;;;;;8355782;28;20291;-72
2022/01/31 01:29:51;;;;;;;;;;;4.80;99.90;;;;;;8378220;28;19942;-72
2022/01/31 01:33:54;;;;;;;;;;;4.80;99.90;;;;;;8379943;28;20058;-71
2022/01/31 01:37:55;;;;;;;;;;;4.80;99.90;;;;;;8385997;28;19976;-71
2022/01/31 01:41:57;;;;;;;;;;;4.80;99.90;;;;;;8384649;28;20708;-71
2022/01/31 01:45:59;;;;;;;;;;;4.90;99.90;;;;;;8380870;28;20440;-71
2022/01/31 01:50:01;;;;;;;;;;;4.90;99.90;;;;;;8367707;28;19928;-71
2022/01/31 01:54:03;;;;;;;;;;;4.90;99.90;;;;;;8396395;28;19931;-71
2022/01/31 01:58:06;;;;;;;;;;;5.00;99.90;;;;;;8366399;28;19932;-71
2022/01/31 02:02:08;;;;;;;;;;;5.00;99.90;;;;;;8380190;28;20015;-71
2022/01/31 02:06:09;;;;;;;;;;;5.00;99.90;;;;;;8383122;28;20011;-71
2022/01/31 02:10:11;;;;;;;;;;;5.00;99.90;;;;;;8369167;28;19979;-71
2022/01/31 02:14:13;;;;;;;;;;;5.10;99.90;;;;;;8381680;28;20011;-71
2022/01/31 02:18:16;;;;;;;;;;;5.10;99.90;;;;;;8360682;28;20396;-72
2022/01/31 02:22:18;;;;;;;;;;;5.10;99.90;;;;;;8368947;28;19924;-71
2022/01/31 02:26:19;;;;;;;;;;;5.20;99.90;;;;;;8348854;28;20028;-71
2022/01/31 02:30:21;;;;;;;;;;;5.20;99.90;;;;;;8380222;28;20020;-71
2022/01/31 02:34:23;;;;;;;;;;;5.30;99.90;;;;;;8384285;28;20027;-72
2022/01/31 02:38:24;;;;;;;;;;;5.30;99.90;;;;;;8394478;28;19932;-72
2022/01/31 02:42:27;;;;;;;;;;;5.40;99.90;;;;;;8383807;28;19931;-71
2022/01/31 02:46:31;;;;;;;;;;;5.50;99.90;;;;;;8379104;28;20039;-71
2022/01/31 02:50:33;;;;;;;;;;;5.60;99.90;;;;;;8365261;28;20434;-71
2022/01/31 02:54:34;;;;;;;;;;;5.70;99.90;;;;;;8385414;28;20038;-71
2022/01/31 02:58:36;;;;;;;;;;;5.80;99.90;;;;;;8383852;28;20345;-71
2022/01/31 03:02:37;;;;;;;;;;;5.90;99.90;;;;;;8381839;28;20392;-72
2022/01/31 03:06:42;;;;;;;;;;;6.00;99.90;;;;;;8381740;28;20291;-72
2022/01/31 03:10:44;;;;;;;;;;;6.00;99.90;;;;;;8365436;28;19998;-71
2022/01/31 03:14:46;;;;;;;;;;;6.10;99.90;;;;;;8382287;28;19924;-71
2022/01/31 03:18:47;;;;;;;;;;;6.10;99.90;;;;;;8381569;28;19944;-71
2022/01/31 03:22:49;;;;;;;;;;;6.10;99.90;;;;;;8359278;28;20371;-72
2022/01/31 03:26:50;;;;;;;;;;;6.10;99.90;;;;;;8379799;28;19952;-71
2022/01/31 03:30:52;;;;;;;;;;;6.20;99.90;;;;;;8380012;28;19931;-71
2022/01/31 03:34:54;;;;;;;;;;;6.20;99.90;;;;;;8373773;28;19933;-71
2022/01/31 03:38:55;;;;;;;;;;;6.30;99.90;;;;;;8379275;28;20363;-71
2022/01/31 03:42:57;;;;;;;;;;;6.30;99.90;;;;;;8384004;28;20015;-71
2022/01/31 03:46:59;;;;;;;;;;;6.30;99.90;;;;;;8360195;28;20340;-71
2022/01/31 03:51:02;;;;;;;;;;;6.30;99.90;;;;;;8385847;28;19931;-71
2022/01/31 03:55:04;;;;;;;;;;;6.40;99.90;;;;;;8380122;28;20383;-72
2022/01/31 03:59:06;;;;;;;;;;;6.40;99.90;;;;;;8379718;28;19979;-71
2022/01/31 04:03:07;;;;;;;;;;;6.40;99.90;;;;;;8371447;28;20343;-72
2022/01/31 04:07:09;;;;;;;;;;;6.40;99.90;;;;;;8378224;28;20299;-72
2022/01/31 04:11:11;;;;;;;;;;;6.40;99.90;;;;;;8363418;28;19967;-72
2022/01/31 04:15:12;;;;;;;;;;;6.50;99.90;;;;;;8381669;28;19966;-72
2022/01/31 04:19:14;;;;;;;;;;;6.50;99.90;;;;;;8377086;28;19971;-72
2022/01/31 04:23:18;;;;;;;;;;;6.50;99.90;;;;;;8379137;28;20015;-72
2022/01/31 04:27:20;;;;;;;;;;;6.50;99.90;;;;;;8379774;28;20370;-72
2022/01/31 04:35:23;;;;;;;;;;;6.50;99.90;;;;;;8377455;28;20342;-72
2022/01/31 04:39:27;;;;;;;;;;;6.50;99.90;;;;;;8372230;28;20020;-71
2022/01/31 04:43:29;;;;;;;;;;;6.60;99.90;;;;;;8381167;28;19979;-72
2022/01/31 04:47:31;;;;;;;;;;;6.60;99.90;;;;;;8381379;28;19967;-71
2022/01/31 04:51:32;;;;;;;;;;;6.60;99.90;;;;;;8361968;28;20015;-72
2022/01/31 04:55:35;;;;;;;;;;;6.60;99.90;;;;;;8363267;28;20069;-72
2022/01/31 04:59:41;;;;;;;;;;;6.60;99.90;;;;;;8378482;28;20212;-72
2022/01/31 05:03:45;;;;;;;;;;;6.60;99.90;;;;;;8361100;28;19939;-72
2022/01/31 05:07:48;;;;;;;;;;;6.60;99.90;;;;;;8366223;28;20282;-72
2022/01/31 05:11:49;;;;;;;;;;;6.60;99.90;;;;;;8370904;28;19955;-72
2022/01/31 05:15:55;;;;;;;;;;;6.40;99.90;;;;;;8376192;28;19963;-72
2022/01/31 05:19:57;;;;;;;;;;;6.10;99.90;;;;;;8392193;28;19924;-71
2022/01/31 05:23:58;;;;;;;;;;;5.70;99.90;;;;;;8389889;28;19979;-72
2022/01/31 05:28:00;;;;;;;;;;;5.30;99.90;;;;;;8369551;28;19932;-71
2022/01/31 05:32:02;;;;;;;;;;;5.10;99.90;;;;;;8376848;28;19968;-71
2022/01/31 05:36:04;;;;;;;;;;;4.90;99.90;;;;;;8390580;28;20319;-72
2022/01/31 05:40:06;;;;;;;;;;;4.90;99.90;;;;;;8388526;28;19932;-71
2022/01/31 05:44:07;;;;;;;;;;;4.90;99.90;;;;;;8390027;28;20007;-71
2022/01/31 05:48:09;;;;;;;;;;;4.90;99.90;;;;;;8390900;28;19928;-71
2022/01/31 05:52:11;;;;;;;;;;;4.90;99.90;;;;;;8373175;28;20360;-71
2022/01/31 05:56:13;;;;;;;;;;;5.00;99.90;;;;;;8394082;28;20126;-71
2022/01/31 06:00:14;;;;;;;;;;;5.00;99.90;;;;;;8400309;28;24856;-71
2022/01/31 06:04:16;;;;;;;;;;;5.10;99.90;;;;;;8371665;28;20012;-72
2022/01/31 06:08:18;;;;;;;;;;;5.10;99.90;;;;;;8391148;28;19970;-71
2022/01/31 06:12:19;;;;;;;;;;;5.20;99.90;;;;;;8391015;28;20316;-71
2022/01/31 06:16:22;;;;;;;;;;;5.20;99.90;;;;;;8386301;28;20391;-71
2022/01/31 06:20:23;;;;;;;;;;;5.30;99.90;;;;;;8389102;28;20018;-72
2022/01/31 06:24:25;;;;;;;;;;;5.30;99.90;;;;;;8390242;28;19929;-71
2022/01/31 06:28:27;;;;;;;;;;;5.30;99.90;;;;;;8361844;28;20028;-71
2022/01/31 06:32:28;;;;;;;;;;;5.20;99.90;;;;;;8379387;28;20022;-72
2022/01/31 06:36:30;;;;;;;;;;;5.20;99.90;;;;;;8387459;28;20311;-72
2022/01/31 06:40:31;;;;;;;;;;;5.20;99.90;;;;;;8386325;28;19994;-71
2022/01/31 06:44:33;;;;;;;;;;;5.20;99.90;;;;;;8387846;28;19933;-71
2022/01/31 06:48:35;;;;;;;;;;;5.20;99.90;;;;;;8372015;28;19928;-71
2022/01/31 06:52:37;;;;;;;;;;;5.20;99.90;;;;;;8369740;28;19967;-71
2022/01/31 06:56:42;;;;;;;;;;;5.30;99.90;;;;;;8387695;28;19932;-72
2022/01/31 07:00:43;;;;;;;;;;;5.30;99.90;;;;;;8377044;28;19925;-71
2022/01/31 07:04:45;;;;;;;;;;;5.30;99.90;;;;;;8377181;28;19984;-71
2022/01/31 07:08:47;;;;;;;;;;;5.30;99.90;;;;;;8378289;28;20443;-72
2022/01/31 07:12:52;;;;;;;;;;;5.30;99.90;;;;;;8386330;28;19975;-72
2022/01/31 07:16:54;;;;;;;;;;;5.30;99.90;;;;;;8377647;28;19935;-72
2022/01/31 07:20:56;;;;;;;;;;;5.30;99.90;;;;;;8390576;28;20018;-72
2022/01/31 07:25:07;;;;;;;;;;;5.30;99.90;;;;;;8371377;28;20288;-72
2022/01/31 07:29:09;;;;;;;;;;;5.30;99.90;;;;;;8390493;28;19964;-72
2022/01/31 07:33:12;;;;;;;;;;;5.20;99.90;;;;;;8384600;28;19964;-72
2022/01/31 07:37:13;;;;;;;;;;;5.20;99.90;;;;;;8385754;28;19994;-72
2022/01/31 07:41:15;;;;;;;;;;;5.20;99.90;;;;;;8391240;28;20011;-71
2022/01/31 07:45:16;;;;;;;;;;;5.20;99.90;;;;;;8397573;28;20011;-72
2022/01/31 07:49:21;;;;;;;;;;;5.20;99.90;;;;;;8381960;28;20012;-71
2022/01/31 07:53:22;;;;;;;;;;;5.20;99.90;;;;;;8388650;28;20011;-72
2022/01/31 07:57:25;;;;;;;;;;;5.20;99.90;;;;;;8385915;28;19932;-72
2022/01/31 08:01:32;;;;;;;;;;;5.20;99.90;;;;;;8364206;28;20402;-72
2022/01/31 08:05:34;;;;;;;;;;;5.30;99.90;;;;;;8390406;28;19925;-73
2022/01/31 08:09:36;;;;;;;;;;;5.30;99.90;;;;;;8389576;28;20015;-72
2022/01/31 08:13:38;;;;;;;;;;;5.30;99.90;;;;;;8380315;28;20023;-73
2022/01/31 08:17:40;;;;;;;;;;;5.30;99.90;;;;;;8370547;28;20011;-73
2022/01/31 08:21:41;;;;;;;;;;;5.30;99.90;;;;;;8391236;28;20377;-72
2022/01/31 08:25:48;;;;;;;;;;;5.40;99.90;;;;;;8368268;28;19932;-72
2022/01/31 08:29:55;;;;;;;;;;;5.40;99.90;;;;;;8389574;28;19924;-72
2022/01/31 08:34:06;;;;;;;;;;;5.40;99.90;;;;;;8382306;28;20394;-72
2022/01/31 08:38:07;;;;;;;;;;;5.40;99.90;;;;;;8388519;28;20384;-72
2022/01/31 08:42:09;;;;;;;;;;;5.30;99.90;;;;;;8385084;28;19983;-72
2022/01/31 08:46:12;;;;;;;;;;;5.30;99.90;;;;;;8388155;28;19975;-73
2022/01/31 08:50:14;;;;;;;;;;;5.30;99.90;;;;;;8387666;28;19924;-72
2022/01/31 08:54:16;;;;;;;;;;;5.40;99.90;;;;;;8387087;28;19971;-72
2022/01/31 08:58:18;;;;;;;;;;;5.40;99.90;;;;;;8392113;28;19964;-72
2022/01/31 09:02:29;;;;;;;;;;;5.40;99.90;;;;;;8386815;28;19924;-72
2022/01/31 09:06:32;;;;;;;;;;;5.40;99.90;;;;;;8386103;28;19932;-72
2022/01/31 09:10:34;;;;;;;;;;;5.40;99.90;;;;;;8365223;28;20799;-72
2022/01/31 09:14:36;;;;;;;;;;;5.40;99.90;;;;;;8391141;28;19925;-72
2022/01/31 09:18:38;;;;;;;;;;;5.40;99.90;;;;;;8388018;28;21397;-72
2022/01/31 09:22:41;;;;;;;;;;;5.40;99.90;;;;;;8387911;28;19979;-72
2022/01/31 09:26:42;;;;;;;;;;;5.30;99.90;;;;;;8389548;28;19974;-72
2022/01/31 09:30:44;;;;;;;;;;;5.30;99.90;;;;;;8383132;28;19928;-73
2022/01/31 09:34:46;;;;;;;;;;;5.30;99.90;;;;;;8382019;28;19932;-72
2022/01/31 09:38:49;;;;;;;;;;;5.30;99.90;;;;;;8387025;28;19963;-73
2022/01/31 09:48:30;;;;;;;;;;;5.30;99.90;;;;;;8384981;28;19924;-73
2022/01/31 09:51:45;;;;;;;;;;;5.40;99.90;;;;;;8389441;28;19964;-72
2022/01/31 09:55:48;;;;;;;;;;;5.40;99.90;;;;;;8376019;28;19924;-72
2022/01/31 09:59:50;;;;;;;;;;;5.40;99.90;;;;;;8370303;28;20009;-72
2022/01/31 10:03:54;;;;;;;;;;;5.40;99.90;;;;;;8369198;28;20011;-71
2022/01/31 10:08:06;;;;;;;;;;;5.40;99.90;;;;;;8396089;28;20353;-71
2022/01/31 10:12:12;;;;;;;;;;;5.50;99.90;;;;;;8379585;28;20016;-72
2022/01/31 10:16:27;;;;;;;;;;;5.50;99.90;;;;;;8386965;28;19960;-71
2022/01/31 10:20:30;;;;;;;;;;;5.60;99.90;;;;;;8388420;28;20019;-72
2022/01/31 10:24:33;;;;;;;;;;;5.60;99.90;;;;;;8386343;28;19964;-70
2022/01/31 10:28:38;;;;;;;;;;;5.60;99.90;;;;;;8387732;28;19967;-71
2022/01/31 10:32:42;;;;;;;;;;;5.60;99.90;;;;;;8391011;28;19966;-71
2022/01/31 10:36:43;;;;;;;;;;;5.70;99.90;;;;;;8388826;28;19972;-71
2022/01/31 10:58:10;;;;;;;;;;;5.60;99.90;;;;;;8390555;28;21324;-71
2022/01/31 11:02:16;;;;;;;;;;;5.60;99.90;;;;;;8383560;28;20334;-71
2022/01/31 11:06:19;;;;;;;;;;;5.50;99.90;;;;;;8375591;28;19941;-71
2022/01/31 11:10:28;;;;;;;;;;;5.50;99.90;;;;;;8392635;28;19928;-71
2022/01/31 11:14:30;;;;;;;;;;;5.40;99.90;;;;;;8384372;28;20348;-71
2022/01/31 11:18:32;;;;;;;;;;;5.40;99.90;;;;;;8374314;28;20012;-71
2022/01/31 11:22:37;;;;;;;;;;;5.40;99.90;;;;;;8373460;28;19998;-71
2022/01/31 11:26:54;;;;;;;;;;;5.40;99.90;;;;;;8389918;28;20368;-71
2022/01/31 11:30:55;;;;;;;;;;;5.40;99.90;;;;;;8388705;28;19983;-71
2022/01/31 11:34:57;;;;;;;;;;;5.40;99.90;;;;;;8386418;28;19967;-71
2022/01/31 11:38:59;;;;;;;;;;;5.40;99.90;;;;;;8387007;28;19931;-71
2022/01/31 11:43:01;;;;;;;;;;;5.40;99.90;;;;;;8386780;28;20305;-72
2022/01/31 11:47:04;;;;;;;;;;;5.40;99.90;;;;;;8393532;28;19931;-72
2022/01/31 11:51:06;;;;;;;;;;;5.50;99.90;;;;;;8386885;28;19966;-72
2022/01/31 11:55:08;;;;;;;;;;;5.50;99.90;;;;;;8389053;28;19959;-73
2022/01/31 11:59:11;;;;;;;;;;;5.50;99.90;;;;;;8387180;28;19936;-72
2022/01/31 12:03:17;;;;;;;;;;;5.50;99.90;;;;;;8383189;28;20392;-73
2022/01/31 12:07:39;;;;;;;;;;;5.50;99.90;;;;;;8375046;28;19972;-72
2022/01/31 12:11:51;;;;;;;;;;;5.50;99.90;;;;;;8387836;28;19979;-72
2022/01/31 12:16:07;;;;;;;;;;;5.50;99.90;;;;;;8390184;28;19925;-73
2022/01/31 12:20:16;;;;;;;;;;;5.60;99.90;;;;;;8369764;28;19932;-72
2022/01/31 12:24:22;;;;;;;;;;;5.60;99.90;;;;;;8388174;28;19928;-72
2022/01/31 12:28:40;;;;;;;;;;;5.60;99.90;;;;;;8385474;28;20388;-73
2022/01/31 12:32:41;;;;;;;;;;;5.70;99.90;;;;;;8386329;28;19924;-73
2022/01/31 12:36:43;;;;;;;;;;;5.70;99.90;;;;;;8375213;28;19924;-73
2022/01/31 12:40:51;;;;;;;;;;;5.70;99.90;;;;;;8380560;28;19971;-72
2022/01/31 12:44:53;;;;;;;;;;;5.70;99.90;;;;;;8381092;28;19975;-72
2022/01/31 12:49:20;;;;;;;;;;;5.70;99.90;;;;;;8368498;28;20315;-73
2022/01/31 12:53:22;;;;;;;;;;;5.70;99.90;;;;;;8379591;28;19924;-72
2022/01/31 12:57:24;;;;;;;;;;;5.80;99.90;;;;;;8389273;28;19925;-72
2022/01/31 13:01:27;;;;;;;;;;;5.70;99.90;;;;;;8378920;28;20023;-72
2022/01/31 13:05:32;;;;;;;;;;;5.80;99.90;;;;;;8388438;28;19924;-73
2022/01/31 13:09:35;;;;;;;;;;;5.80;99.90;;;;;;8385233;28;19979;-72
2022/01/31 13:13:38;;;;;;;;;;;5.80;99.90;;;;;;8387191;28;20012;-73
2022/01/31 13:17:42;;;;;;;;;;;5.80;99.90;;;;;;8386976;28;19929;-73
2022/01/31 13:21:44;;;;;;;;;;;5.80;99.90;;;;;;8390923;28;20355;-73
2022/01/31 13:25:55;;;;;;;;;;;5.80;99.90;;;;;;8385029;28;19924;-73
2022/01/31 13:29:57;;;;;;;;;;;5.80;99.90;;;;;;8379253;28;20011;-72
2022/01/31 13:34:00;;;;;;;;;;;5.80;99.90;;;;;;8386246;28;19963;-73
2022/01/31 13:38:08;;;;;;;;;;;5.80;99.90;;;;;;8374898;28;20345;-73
2022/01/31 13:42:21;;;;;;;;;;;5.90;99.90;;;;;;8390381;28;19928;-72
2022/01/31 13:46:30;;;;;;;;;;;5.90;99.90;;;;;;8392546;28;20015;-73
2022/01/31 13:50:41;;;;;;;;;;;6.00;99.90;;;;;;8376749;28;19924;-72
2022/01/31 13:54:43;;;;;;;;;;;6.00;99.90;;;;;;8394971;28;19932;-72
2022/01/31 13:58:54;;;;;;;;;;;6.00;99.90;;;;;;8395269;28;20387;-72
2022/01/31 14:03:09;;;;;;;;;;;6.00;99.90;;;;;;8385130;28;20372;-73
2022/01/31 14:07:27;;;;;;;;;;;6.00;99.90;;;;;;8377938;28;19975;-72
2022/01/31 14:11:35;;;;;;;;;;;6.00;99.90;;;;;;8376411;28;19924;-73
2022/01/31 14:15:42;;;;;;;;;;;6.00;99.90;;;;;;8395095;28;19966;-72
2022/01/31 14:19:44;;;;;;;;;;;6.00;99.90;;;;;;8392384;28;19928;-72
2022/01/31 14:23:49;;;;;;;;;;;6.10;99.90;;;;;;8389479;28;19986;-71
2022/01/31 14:27:51;;;;;;;;;;;6.10;99.90;;;;;;8394402;28;19924;-71
2022/01/31 14:31:54;;;;;;;;;;;6.10;99.90;;;;;;8372254;28;19954;-72
2022/01/31 14:36:12;;;;;;;;;;;6.10;99.90;;;;;;8389238;28;19975;-71
2022/01/31 14:40:38;;;;;;;;;;;6.10;99.90;;;;;;8390798;28;19939;-70
2022/01/31 14:49:13;;;;;;;;;;;6.00;99.90;;;;;;8391104;28;20432;-72
2022/01/31 14:53:18;;;;;;;;;;;6.00;99.90;;;;;;8393244;28;19924;-72
2022/01/31 14:57:19;;;;;;;;;;;5.90;99.90;;;;;;8391696;28;19960;-71
2022/01/31 15:01:21;;;;;;;;;;;6.00;99.90;;;;;;8375887;28;19925;-71
2022/01/31 15:05:22;;;;;;;;;;;5.90;99.90;;;;;;8382571;28;19924;-72
2022/01/31 15:09:24;;;;;;;;;;;5.90;99.90;;;;;;8391922;28;20410;-72
2022/01/31 15:13:26;;;;;;;;;;;5.90;99.90;;;;;;8385763;28;19929;-71
2022/01/31 15:17:30;;;;;;;;;;;5.80;99.90;;;;;;8391479;28;19932;-71
2022/01/31 15:21:33;;;;;;;;;;;5.80;99.90;;;;;;8391535;28;20350;-71
2022/01/31 15:25:35;;;;;;;;;;;5.80;99.90;;;;;;8368091;28;19925;-72
2022/01/31 15:29:37;;;;;;;;;;;5.80;99.90;;;;;;8386995;28;19935;-72
2022/01/31 15:33:47;;;;;;;;;;;5.80;99.90;;;;;;8384682;28;19924;-72
2022/01/31 15:37:48;;;;;;;;;;;5.90;99.90;;;;;;8384574;28;20372;-72
2022/01/31 15:41:57;;;;;;;;;;;5.90;99.90;;;;;;8383089;28;20436;-72
2022/01/31 15:45:59;;;;;;;;;;;6.00;99.90;;;;;;8386476;28;20015;-72
2022/01/31 15:50:00;;;;;;;;;;;6.00;99.90;;;;;;8385735;28;19928;-71
2022/01/31 15:54:11;;;;;;;;;;;6.00;99.90;;;;;;8374196;28;19972;-72
2022/01/31 15:58:14;;;;;;;;;;;6.10;99.90;;;;;;8352080;28;19996;-72
2022/01/31 16:02:16;;;;;;;;;;;6.10;99.90;;;;;;8352886;28;20015;-72
2022/01/31 16:06:18;;;;;;;;;;;6.10;99.90;;;;;;8356212;28;19933;-71
2022/01/31 16:10:20;;;;;;;;;;;6.20;99.90;;;;;;8354991;28;19925;-71
2022/01/31 16:14:22;;;;;;;;;;;6.20;99.90;;;;;;8357340;28;20016;-71
2022/01/31 16:18:23;;;;;;;;;;;6.20;99.90;;;;;;8334769;28;20011;-71
2022/01/31 16:22:25;;;;;;;;;;;6.20;99.90;;;;;;8355174;28;20023;-71
2022/01/31 16:26:26;;;;;;;;;;;6.20;99.90;;;;;;8353924;28;20036;-71
2022/01/31 16:30:29;;;;;;;;;;;6.20;99.90;;;;;;8358566;28;19935;-72
2022/01/31 16:34:30;;;;;;;;;;;6.20;99.90;;;;;;8347525;28;19932;-71
2022/01/31 16:38:32;;;;;;;;;;;6.20;99.90;;;;;;8352678;28;20385;-71
2022/01/31 16:42:34;;;;;;;;;;;6.20;99.90;;;;;;8352343;28;19924;-72
2022/01/31 16:46:39;;;;;;;;;;;6.20;99.90;;;;;;8355664;28;19932;-71
2022/01/31 16:50:41;;;;;;;;;;;6.20;99.90;;;;;;8358333;28;19990;-71
2022/01/31 16:54:43;;;;;;;;;;;6.20;99.90;;;;;;8354233;28;20035;-72
2022/01/31 16:58:44;;;;;;;;;;;6.20;99.90;;;;;;8355568;28;19968;-71
2022/01/31 17:02:46;;;;;;;;;;;6.20;99.90;;;;;;8356606;28;19924;-72
2022/01/31 17:06:49;;;;;;;;;;;6.20;99.90;;;;;;8350133;28;19932;-72
2022/01/31 17:10:50;;;;;;;;;;;6.20;99.90;;;;;;8335791;28;19931;-72
2022/01/31 17:14:53;;;;;;;;;;;6.20;99.90;;;;;;8357570;28;19933;-72
2022/01/31 17:18:54;;;;;;;;;;;6.10;99.90;;;;;;8364819;28;20382;-72
2022/01/31 17:22:56;;;;;;;;;;;6.00;99.90;;;;;;8356827;28;19925;-71
2022/01/31 17:26:58;;;;;;;;;;;5.90;99.90;;;;;;8343429;28;20301;-71
2022/01/31 17:30:59;;;;;;;;;;;5.90;99.90;;;;;;8364996;28;19928;-72
2022/01/31 17:35:02;;;;;;;;;;;5.90;99.90;;;;;;8369449;28;20023;-71
2022/01/31 17:39:04;;;;;;;;;;;6.00;99.90;;;;;;8360002;28;19968;-72
2022/01/31 17:43:08;;;;;;;;;;;5.90;99.90;;;;;;8339468;28;19962;-71
2022/01/31 17:47:10;;;;;;;;;;;5.90;99.90;;;;;;8358634;28;19928;-71
2022/01/31 17:51:12;;;;;;;;;;;5.90;99.90;;;;;;8359543;28;19933;-72
2022/01/31 17:55:14;;;;;;;;;;;5.90;99.90;;;;;;8360325;28;19971;-72
2022/01/31 17:59:16;;;;;;;;;;;6.00;99.90;;;;;;8356002;28;20023;-72
2022/01/31 18:03:17;;;;;;;;;;;6.00;99.90;;;;;;8340286;28;20015;-72
2022/01/31 18:07:19;;;;;;;;;;;6.00;99.90;;;;;;8360994;28;19929;-71
2022/01/31 18:11:20;;;;;;;;;;;6.00;99.90;;;;;;8362425;28;19925;-72
2022/01/31 18:15:22;;;;;;;;;;;5.90;99.90;;;;;;8359555;28;20027;-71
2022/01/31 18:19:24;;;;;;;;;;;5.80;99.90;;;;;;8359789;28;20486;-72
2022/01/31 18:23:25;;;;;;;;;;;5.80;99.90;;;;;;8358606;28;19979;-71
2022/01/31 18:27:27;;;;;;;;;;;5.80;99.90;;;;;;8360188;28;20114;-71
2022/01/31 18:31:29;;;;;;;;;;;5.80;99.90;;;;;;8359975;28;19975;-72
2022/01/31 18:35:30;;;;;;;;;;;5.90;99.90;;;;;;8340744;28;20431;-72
2022/01/31 18:39:32;;;;;;;;;;;5.90;99.90;;;;;;8360076;28;24256;-72
2022/01/31 18:43:34;;;;;;;;;;;5.90;99.90;;;;;;8354642;28;20048;-72
2022/01/31 18:47:37;;;;;;;;;;;5.90;99.90;;;;;;8372543;28;19932;-71
2022/01/31 18:51:40;;;;;;;;;;;5.90;99.90;;;;;;8339675;28;20019;-71
2022/01/31 18:55:42;;;;;;;;;;;5.90;99.90;;;;;;8356397;28;19925;-72
2022/01/31 18:59:44;;;;;;;;;;;6.00;99.90;;;;;;8358180;28;20008;-72
2022/01/31 19:03:45;;;;;;;;;;;6.00;99.90;;;;;;8346635;28;20102;-72
2022/01/31 19:07:49;;;;;;;;;;;6.00;99.90;;;;;;8359508;28;19991;-72
2022/01/31 19:11:53;;;;;;;;;;;6.00;99.90;;;;;;8358507;28;19956;-71
2022/01/31 19:15:57;;;;;;;;;;;6.00;99.90;;;;;;8356469;28;19928;-71
2022/01/31 19:19:59;;;;;;;;;;;6.00;99.90;;;;;;8361194;28;19985;-72
2022/01/31 19:24:00;;;;;;;;;;;6.00;99.90;;;;;;8371050;28;19932;-71
2022/01/31 19:28:03;;;;;;;;;;;6.00;99.90;;;;;;8369132;28;19986;-72
2022/01/31 19:32:05;;;;;;;;;;;6.00;99.90;;;;;;8355167;28;19928;-71
2022/01/31 19:36:10;;;;;;;;;;;6.00;99.90;;;;;;8368698;28;20379;-72
2022/01/31 19:44:33;;;;;;;;;;;5.90;99.90;;;;;;8356431;28;20368;-71
2022/01/31 19:48:35;;;;;;;;;;;5.90;99.90;;;;;;8338666;28;19974;-72
2022/01/31 19:52:37;;;;;;;;;;;5.80;99.90;;;;;;8357821;28;19994;-71
2022/01/31 19:56:39;;;;;;;;;;;5.80;99.90;;;;;;8342080;28;20375;-71
2022/01/31 20:00:41;;;;;;;;;;;5.70;99.90;;;;;;8337737;28;20008;-71
2022/01/31 20:04:42;;;;;;;;;;;5.60;99.90;;;;;;8355176;28;20015;-72
2022/01/31 20:08:46;;;;;;;;;;;5.60;99.90;;;;;;8338419;28;19974;-72
2022/01/31 20:12:48;;;;;;;;;;;5.50;99.90;;;;;;8336298;28;19955;-72
2022/01/31 20:16:49;;;;;;;;;;;5.50;99.90;;;;;;8372059;28;19990;-72
2022/01/31 20:20:52;;;;;;;;;;;5.40;99.90;;;;;;8357430;28;20300;-71
2022/01/31 20:24:53;;;;;;;;;;;5.30;99.90;;;;;;8356865;28;20440;-71
2022/01/31 20:28:56;;;;;;;;;;;5.30;99.90;;;;;;8354754;28;19925;-71
2022/01/31 20:32:58;;;;;;;;;;;5.30;99.90;;;;;;8335195;28;20215;-72
2022/01/31 20:37:08;;;;;;;;;;;5.40;99.90;;;;;;8339791;28;20339;-72
2022/01/31 20:45:11;;;;;;;;;;;5.30;99.90;;;;;;8353196;28;19932;-71
2022/01/31 20:49:13;;;;;;;;;;;5.20;99.90;;;;;;8356517;28;20027;-71
2022/01/31 20:53:15;;;;;;;;;;;5.20;99.90;;;;;;8357790;28;19990;-72
2022/01/31 20:57:17;;;;;;;;;;;5.20;99.90;;;;;;8358555;28;19975;-71
2022/01/31 21:01:19;;;;;;;;;;;5.20;99.90;;;;;;8359915;28;20384;-72
2022/01/31 21:05:21;;;;;;;;;;;5.10;99.90;;;;;;8360375;28;19971;-71
2022/01/31 21:09:23;;;;;;;;;;;5.00;99.90;;;;;;8366939;28;20580;-72
2022/01/31 21:13:25;;;;;;;;;;;5.00;99.90;;;;;;8368870;28;19972;-72
2022/01/31 21:17:38;;;;;;;;;;;4.90;99.90;;;;;;8360380;28;19928;-72
2022/01/31 21:21:40;;;;;;;;;;;4.80;99.90;;;;;;8354866;28;20371;-71
2022/01/31 21:25:42;;;;;;;;;;;4.80;99.90;;;;;;8339494;28;19925;-72
2022/01/31 21:29:44;;;;;;;;;;;4.70;99.90;;;;;;8354650;28;20042;-72
2022/01/31 21:33:47;;;;;;;;;;;4.70;99.90;;;;;;8351942;28;20011;-72
2022/01/31 21:37:51;;;;;;;;;;;4.60;99.90;;;;;;8354957;28;19963;-71
2022/01/31 21:41:53;;;;;;;;;;;4.60;99.90;;;;;;8353364;28;19935;-72
2022/01/31 21:45:58;;;;;;;;;;;4.50;99.90;;;;;;8356114;28;19925;-71
2022/01/31 21:50:02;;;;;;;;;;;4.50;99.90;;;;;;8334529;28;20404;-72
2022/01/31 21:54:04;;;;;;;;;;;4.40;99.90;;;;;;8357201;28;20300;-71
2022/01/31 21:58:05;;;;;;;;;;;4.40;99.90;;;;;;8358363;28;20415;-71
2022/01/31 22:02:08;;;;;;;;;;;4.40;99.90;;;;;;8359717;28;19955;-72
2022/01/31 22:06:10;;;;;;;;;;;4.40;99.90;;;;;;8388774;28;19932;-72
2022/01/31 22:14:27;;;;;;;;;;;4.30;99.90;;;;;;8392025;28;19950;-71
2022/01/31 22:18:28;;;;;;;;;;;4.30;99.90;;;;;;8372970;28;19983;-71
2022/01/31 22:22:30;;;;;;;;;;;4.30;99.90;;;;;;8393515;28;19932;-72
2022/01/31 22:26:32;;;;;;;;;;;4.30;99.90;;;;;;8375444;28;19991;-71
2022/01/31 22:30:33;;;;;;;;;;;4.30;99.90;;;;;;8389402;28;20425;-71
2022/01/31 22:34:35;;;;;;;;;;;4.30;99.90;;;;;;8375928;28;20267;-71
2022/01/31 22:38:36;;;;;;;;;;;4.20;99.90;;;;;;8394762;28;19943;-71
2022/01/31 22:42:38;;;;;;;;;;;4.20;99.90;;;;;;8371747;28;20012;-71
2022/01/31 22:46:40;;;;;;;;;;;4.10;99.90;;;;;;8391743;28;19936;-71
2022/01/31 22:50:43;;;;;;;;;;;4.10;99.90;;;;;;8390227;28;20014;-71
2022/01/31 22:54:45;;;;;;;;;;;4.00;99.90;;;;;;8389298;28;20024;-71
2022/01/31 22:58:47;;;;;;;;;;;4.00;99.90;;;;;;8371246;28;19931;-71
2022/01/31 23:02:48;;;;;;;;;;;3.90;99.90;;;;;;8377167;28;20023;-71
2022/01/31 23:06:50;;;;;;;;;;;3.90;99.90;;;;;;8387603;28;20086;-71
2022/01/31 23:10:52;;;;;;;;;;;3.80;99.90;;;;;;8391025;28;19931;-71
2022/01/31 23:14:56;;;;;;;;;;;3.80;99.90;;;;;;8372532;28;19931;-71
2022/01/31 23:19:13;;;;;;;;;;;3.70;99.90;;;;;;8390641;28;19939;-71
2022/01/31 23:53:29;;;;;;;;;;;3.50;99.90;;;;;;8381173;28;19970;-71
